Time;durP1;ratioP1;P1;durP2;ratioP2;P2;SDS_P1;SDS_P2;PMS_P1;PMS_P2;Temp;Humidity;BMP_temperature;BMP_pressure;BME280_temperature;BME280_humidity;BME280_pressure;Samples;Min_cycle;Max_cycle;Signal;HPM_P1;HPM_P2
2022/12/08 06:03:43;;;;;;;0.75;0.60;;;;;;;3.17;100.00;100652.75;5010625;28;20053;-72
2022/12/08 06:06:08;;;;;;;1.55;1.10;;;;;;;2.90;100.00;100663.09;5018624;28;20619;-73
2022/12/08 06:08:33;;;;;;;6.47;0.95;;;;;;;2.76;100.00;100654.19;5023382;28;20057;-73
2022/12/08 06:10:59;;;;;;;1.45;1.00;;;;;;;3.01;100.00;100650.50;5017341;28;20029;-72
2022/12/08 06:13:24;;;;;;;2.28;1.15;;;;;;;2.96;100.00;100644.38;5044368;23;20164;-72
2022/12/08 06:15:49;;;;;;;3.40;0.90;;;;;;;3.00;100.00;100650.88;5012510;28;20033;-72
2022/12/08 06:18:15;;;;;;;4.82;1.05;;;;;;;3.08;100.00;100652.78;5001844;28;20468;-73
2022/12/08 06:20:40;;;;;;;3.38;1.38;;;;;;;2.88;100.00;100653.53;5000114;28;20022;-72
2022/12/08 06:23:05;;;;;;;2.22;1.15;;;;;;;2.94;100.00;100664.06;5005405;28;20180;-73
2022/12/08 06:25:31;;;;;;;2.65;1.58;;;;;;;2.74;100.00;100659.25;5002976;28;20030;-73
2022/12/08 06:27:56;;;;;;;5.20;1.80;;;;;;;2.98;100.00;100665.03;5007652;28;20026;-72
2022/12/08 06:30:21;;;;;;;2.92;1.75;;;;;;;3.07;100.00;100662.22;5000628;28;20046;-72
2022/12/08 06:32:47;;;;;;;3.25;1.95;;;;;;;3.26;100.00;100675.63;4997030;28;20034;-72
2022/12/08 06:35:15;;;;;;;9.07;2.50;;;;;;;3.32;100.00;100660.47;4995370;28;20045;-72
2022/12/08 06:37:40;;;;;;;5.38;3.90;;;;;;;3.40;100.00;100681.75;5000629;28;20022;-72
2022/12/08 06:40:08;;;;;;;4.07;1.75;;;;;;;3.39;100.00;100668.22;4998966;28;20044;-73
2022/12/08 06:42:43;;;;;;;3.15;1.83;;;;;;;3.41;100.00;100680.56;5018365;28;20029;-73
2022/12/08 06:45:09;;;;;;;5.55;2.40;;;;;;;3.42;100.00;100693.28;4997038;28;20040;-73
2022/12/08 06:47:34;;;;;;;7.65;2.35;;;;;;;3.34;100.00;100687.81;5001090;28;20401;-73
2022/12/08 06:49:59;;;;;;;2.25;1.63;;;;;;;3.13;100.00;100696.84;5001061;28;20022;-72
2022/12/08 06:52:25;;;;;;;3.78;1.40;;;;;;;3.08;100.00;100690.66;4999858;28;20105;-73
2022/12/08 06:54:50;;;;;;;6.35;1.35;;;;;;;3.01;100.00;100697.53;5003248;28;20034;-73
2022/12/08 06:57:17;;;;;;;1.33;0.98;;;;;;;3.29;100.00;100680.50;5006424;28;20037;-75
2022/12/08 06:59:42;;;;;;;1.08;0.93;;;;;;;3.12;100.00;100675.03;5011927;28;20040;-75
2022/12/08 07:02:08;;;;;;;1.33;0.95;;;;;;;3.32;100.00;100685.34;5003349;28;20037;-75
2022/12/08 07:04:34;;;;;;;1.50;1.08;;;;;;;3.46;100.00;100685.94;4983704;28;21529;-74
2022/12/08 07:06:59;;;;;;;1.00;0.80;;;;;;;3.47;100.00;100681.22;4996954;28;20022;-74
2022/12/08 07:09:24;;;;;;;0.75;0.68;;;;;;;3.46;100.00;100688.69;4997815;28;20033;-75
2022/12/08 07:11:50;;;;;;;43.85;3.47;;;;;;;4.48;100.00;100694.09;5005207;28;20397;-75
2022/12/08 07:14:15;;;;;;;13.68;1.65;;;;;;;4.67;100.00;100688.84;5004504;28;20517;-75
2022/12/08 07:16:40;;;;;;;6.40;0.75;;;;;;;4.16;100.00;100687.41;4998363;28;20473;-75
2022/12/08 07:19:06;;;;;;;1.38;0.57;;;;;;;3.81;100.00;100674.63;5000975;28;20018;-76
2022/12/08 07:21:31;;;;;;;3.83;0.90;;;;;;;3.74;100.00;100685.44;5002966;28;20115;-75
2022/12/08 07:23:56;;;;;;;6.13;1.77;;;;;;;3.48;100.00;100693.91;5000328;28;20088;-75
2022/12/08 07:26:22;;;;;;;5.03;2.63;;;;;;;3.07;100.00;100694.59;4997111;28;20100;-75
2022/12/08 07:28:47;;;;;;;4.47;2.70;;;;;;;2.90;100.00;100695.47;4999143;28;20038;-75
2022/12/08 07:31:20;;;;;;;6.35;2.78;;;;;;;3.07;100.00;100697.34;5001501;28;20040;-75
2022/12/08 07:33:46;;;;;;;7.97;2.90;;;;;;;2.97;100.00;100699.34;4999025;28;20425;-75
2022/12/08 07:36:11;;;;;;;6.07;3.47;;;;;;;2.96;100.00;100708.78;5001534;28;20037;-75
2022/12/08 07:38:36;;;;;;;6.93;3.28;;;;;;;3.09;100.00;100717.19;5000756;28;20816;-75
2022/12/08 07:41:02;;;;;;;9.82;4.60;;;;;;;3.29;100.00;100713.69;4996997;28;20104;-75
2022/12/08 07:43:27;;;;;;;6.60;3.55;;;;;;;3.59;100.00;100699.88;5003440;28;20037;-75
2022/12/08 07:45:53;;;;;;;5.88;3.38;;;;;;;3.27;100.00;100696.63;5002616;28;20030;-74
2022/12/08 07:48:18;;;;;;;7.55;3.83;;;;;;;3.42;100.00;100695.25;5000186;28;20030;-75
2022/12/08 07:50:44;;;;;;;10.98;4.97;;;;;;;3.08;100.00;100701.72;4998899;28;20044;-74
2022/12/08 07:53:10;;;;;;;9.10;4.03;;;;;;;3.23;100.00;100709.50;5005755;28;20065;-75
2022/12/08 07:55:40;;;;;;;8.88;4.05;;;;;;;3.28;100.00;100701.00;5004915;28;20033;-75
2022/12/08 07:58:06;;;;;;;8.77;3.85;;;;;;;3.09;100.00;100709.72;5002863;28;20033;-74
2022/12/08 08:00:31;;;;;;;7.35;4.10;;;;;;;3.32;100.00;100701.97;5002750;28;20037;-76
2022/12/08 08:02:56;;;;;;;7.53;4.40;;;;;;;3.37;100.00;100701.78;5015925;28;20026;-75
2022/12/08 08:05:22;;;;;;;8.02;4.40;;;;;;;3.34;100.00;100688.59;5000466;28;20095;-75
2022/12/08 08:07:47;;;;;;;7.07;3.75;;;;;;;3.21;100.00;100701.53;5000916;28;20449;-74
2022/12/08 08:10:12;;;;;;;6.95;3.78;;;;;;;3.55;100.00;100696.16;4995132;28;20044;-74
2022/12/08 08:12:38;;;;;;;10.32;4.45;;;;;;;3.59;100.00;100688.81;5017457;28;20065;-74
2022/12/08 08:15:06;;;;;;;7.45;4.30;;;;;;;3.63;100.00;100709.13;4995668;28;20417;-74
2022/12/08 08:17:31;;;;;;;4.75;3.70;;;;;;;3.49;100.00;100705.78;4999747;28;20225;-74
2022/12/08 08:19:57;;;;;;;11.35;5.50;;;;;;;3.55;100.00;100696.16;5001068;28;20034;-74
2022/12/08 08:22:24;;;;;;;9.85;4.65;;;;;;;3.64;100.00;100707.97;5001201;28;20059;-74
2022/12/08 08:24:49;;;;;;;13.68;4.22;;;;;;;3.65;100.00;100704.06;5000287;28;20034;-75
2022/12/08 08:27:14;;;;;;;11.80;4.35;;;;;;;3.74;100.00;100715.09;5001507;28;20431;-74
2022/12/08 08:29:40;;;;;;;10.50;4.65;;;;;;;3.76;100.00;100698.94;5000953;28;20173;-74
2022/12/08 08:32:05;;;;;;;12.00;5.53;;;;;;;3.69;100.00;100705.03;5005005;28;20068;-74
2022/12/08 08:34:30;;;;;;;12.00;4.88;;;;;;;3.55;100.00;100701.69;5000401;28;20073;-75
2022/12/08 08:36:56;;;;;;;7.00;5.00;;;;;;;3.35;100.00;100704.06;4999967;28;20485;-75
2022/12/08 08:39:21;;;;;;;10.18;5.47;;;;;;;3.54;100.00;100708.34;5003312;28;20022;-75
2022/12/08 08:41:46;;;;;;;6.15;4.10;;;;;;;3.44;100.00;100707.59;5004285;28;20197;-74
2022/12/08 08:44:13;;;;;;;7.68;4.30;;;;;;;3.48;100.00;100704.97;5002458;28;20033;-74
2022/12/08 08:46:39;;;;;;;11.18;4.55;;;;;;;3.40;100.00;100698.34;5006821;28;20108;-75
2022/12/08 08:49:04;;;;;;;9.60;4.88;;;;;;;3.49;100.00;100694.72;5001993;28;20032;-74
2022/12/08 08:51:29;;;;;;;8.90;4.72;;;;;;;3.55;100.00;100698.91;4992225;28;20075;-74
2022/12/08 08:53:56;;;;;;;10.75;4.95;;;;;;;3.39;100.00;100690.38;5006199;28;20026;-74
2022/12/08 08:56:21;;;;;;;8.38;5.03;;;;;;;3.46;100.00;100691.47;5002461;28;20026;-74
2022/12/08 08:58:51;;;;;;;8.88;4.93;;;;;;;3.50;100.00;100682.50;5000221;28;20029;-73
2022/12/08 09:01:19;;;;;;;7.70;5.05;;;;;;;3.58;100.00;100690.72;5002269;28;20050;-74
2022/12/08 09:03:45;;;;;;;8.02;4.57;;;;;;;3.64;100.00;100691.34;5001839;28;20029;-73
2022/12/08 09:06:12;;;;;;;13.30;5.15;;;;;;;3.34;100.00;100688.59;5003065;28;20052;-74
2022/12/08 09:08:37;;;;;;;9.48;4.43;;;;;;;3.37;100.00;100687.13;5004294;28;20401;-74
2022/12/08 09:11:03;;;;;;;8.52;4.80;;;;;;;3.32;100.00;100690.91;5002927;28;20034;-74
2022/12/08 09:13:28;;;;;;;12.32;4.75;;;;;;;3.22;100.00;100699.56;5005155;28;20046;-74
2022/12/08 09:15:53;;;;;;;26.00;5.38;;;;;;;3.29;100.00;100699.88;5007998;28;20393;-74
2022/12/08 09:18:19;;;;;;;15.45;5.15;;;;;;;3.14;100.00;100695.72;5006028;28;20060;-74
2022/12/08 09:20:44;;;;;;;8.70;4.65;;;;;;;3.15;100.00;100702.84;5005724;28;20064;-74
2022/12/08 09:23:09;;;;;;;13.82;6.03;;;;;;;3.35;100.00;100692.19;5003319;28;20041;-74
2022/12/08 09:25:35;;;;;;;11.77;5.25;;;;;;;3.28;100.00;100697.44;5001312;28;20026;-74
2022/12/08 09:28:00;;;;;;;9.05;4.50;;;;;;;3.60;100.00;100702.28;5004881;28;20513;-73
2022/12/08 09:30:25;;;;;;;10.50;5.90;;;;;;;3.59;100.00;100694.34;5007846;28;20038;-73
2022/12/08 09:32:51;;;;;;;12.13;5.35;;;;;;;3.28;100.00;100694.66;5002905;28;20091;-74
2022/12/08 09:35:16;;;;;;;13.07;6.50;;;;;;;3.42;100.00;100696.06;5003688;28;20620;-73
2022/12/08 09:37:41;;;;;;;16.10;6.28;;;;;;;3.75;100.00;100681.50;5003515;28;20037;-74
2022/12/08 09:40:07;;;;;;;14.35;6.40;;;;;;;3.35;100.00;100689.41;5002175;28;20101;-74
2022/12/08 09:42:46;;;;;;;17.80;8.23;;;;;;;3.54;100.00;100691.75;5007644;28;20504;-73
2022/12/08 09:45:14;;;;;;;10.05;5.35;;;;;;;3.65;100.00;100693.81;5003476;28;20469;-74
2022/12/08 09:47:44;;;;;;;14.20;6.22;;;;;;;3.49;100.00;100689.19;5003866;28;20038;-73
2022/12/08 09:50:39;;;;;;;11.50;5.50;;;;;;;3.53;100.00;100690.13;5002503;28;20034;-74
2022/12/08 09:53:11;;;;;;;15.25;7.32;;;;;;;3.43;100.00;100692.13;5005047;28;20033;-73
2022/12/08 09:55:41;;;;;;;12.07;5.35;;;;;;;3.41;100.00;100688.88;5002289;28;20044;-73
2022/12/08 09:58:18;;;;;;;14.65;6.90;;;;;;;3.24;100.00;100689.78;5004293;28;20030;-74
2022/12/08 10:00:43;;;;;;;18.08;7.25;;;;;;;3.44;100.00;100692.97;4998758;28;20619;-74
2022/12/08 10:03:11;;;;;;;22.02;6.60;;;;;;;3.36;100.00;100694.63;5001112;28;20041;-73
2022/12/08 10:05:44;;;;;;;17.80;6.47;;;;;;;3.45;100.00;100698.13;5005501;28;20041;-74
2022/12/08 10:08:18;;;;;;;16.25;6.38;;;;;;;3.34;100.00;100676.72;4999628;28;20018;-75
2022/12/08 10:10:58;;;;;;;13.77;5.40;;;;;;;3.35;100.00;100689.41;5003312;28;20026;-74
2022/12/08 10:13:39;;;;;;;14.38;6.95;;;;;;;3.28;100.00;100691.91;5004670;28;20042;-74
2022/12/08 10:16:20;;;;;;;15.95;6.80;;;;;;;3.35;100.00;100690.25;5003073;28;20041;-74
2022/12/08 10:18:56;;;;;;;12.90;5.97;;;;;;;3.31;100.00;100689.28;5000603;28;20017;-74
2022/12/08 10:21:25;;;;;;;15.77;6.82;;;;;;;3.44;100.00;100688.22;5005529;28;20041;-74
2022/12/08 10:23:57;;;;;;;15.15;6.40;;;;;;;3.40;100.00;100686.47;5003847;28;20033;-73
2022/12/08 10:26:23;;;;;;;13.53;6.70;;;;;;;3.58;100.00;100687.16;5003271;28;20057;-74
2022/12/08 10:28:49;;;;;;;12.15;6.18;;;;;;;3.58;100.00;100676.91;5005021;28;20515;-73
2022/12/08 10:31:17;;;;;;;17.13;6.80;;;;;;;3.43;100.00;100670.00;5009171;28;20029;-73
2022/12/08 10:33:45;;;;;;;12.20;6.45;;;;;;;3.28;100.00;100667.81;5001730;28;20042;-74
2022/12/08 10:36:11;;;;;;;15.88;7.00;;;;;;;3.35;100.00;100673.63;5004647;28;20739;-74
2022/12/08 10:38:38;;;;;;;10.98;6.43;;;;;;;3.56;100.00;100661.78;5004790;28;20146;-74
2022/12/08 10:41:11;;;;;;;14.95;5.78;;;;;;;3.46;100.00;100669.34;5006654;28;20550;-74
2022/12/08 10:43:42;;;;;;;12.77;6.13;;;;;;;3.39;100.00;100669.03;5004830;28;20045;-74
2022/12/08 10:46:15;;;;;;;14.48;6.15;;;;;;;3.28;100.00;100662.28;5006272;28;20030;-75
2022/12/08 10:48:50;;;;;;;14.95;5.53;;;;;;;3.53;100.00;100663.25;5008747;28;20026;-76
2022/12/08 10:51:39;;;;;;;10.48;6.10;;;;;;;3.33;100.00;100662.09;5001370;28;20037;-75
2022/12/08 10:54:25;;;;;;;11.00;5.38;;;;;;;3.58;100.00;100657.53;5003153;28;20033;-75
2022/12/08 10:56:55;;;;;;;12.77;5.53;;;;;;;3.49;100.00;100664.28;5006209;28;20030;-75
2022/12/08 10:59:24;;;;;;;14.10;5.68;;;;;;;3.49;100.00;100651.25;5006403;28;20623;-74
2022/12/08 11:01:51;;;;;;;13.25;5.80;;;;;;;3.62;100.00;100654.91;5007331;28;20117;-77
2022/12/08 11:04:22;;;;;;;13.07;4.80;;;;;;;3.49;100.00;100650.44;5004002;28;20061;-75
2022/12/08 11:06:50;;;;;;;7.78;4.95;;;;;;;3.70;100.00;100656.81;4999115;28;20685;-74
2022/12/08 11:09:18;;;;;;;7.78;4.40;;;;;;;3.70;100.00;100645.72;5004216;28;20030;-75
2022/12/08 11:11:46;;;;;;;9.38;5.03;;;;;;;3.61;100.00;100647.75;5001734;28;20056;-75
2022/12/08 11:14:43;;;;;;;12.20;5.28;;;;;;;3.81;100.00;100641.41;4997532;28;20037;-76
2022/12/08 11:17:21;;;;;;;8.98;4.20;;;;;;;3.73;100.00;100644.22;5002119;28;20035;-76
2022/12/08 11:20:08;;;;;;;7.47;4.40;;;;;;;3.90;100.00;100641.34;5006019;28;20029;-77
2022/12/08 11:22:39;;;;;;;6.10;3.13;;;;;;;3.73;100.00;100634.00;4998617;28;20794;-77
2022/12/08 11:25:07;;;;;;;9.70;4.60;;;;;;;3.88;100.00;100651.97;5006274;28;20497;-77
2022/12/08 11:27:35;;;;;;;8.85;4.40;;;;;;;3.60;100.00;100643.34;5006107;28;20029;-77
2022/12/08 11:30:02;;;;;;;10.10;4.63;;;;;;;3.75;100.00;100644.72;5013978;28;20028;-77
2022/12/08 11:32:28;;;;;;;6.97;3.83;;;;;;;3.63;100.00;100639.94;5007677;28;20508;-74
2022/12/08 11:35:02;;;;;;;12.93;4.10;;;;;;;3.71;100.00;100635.47;4994869;28;20401;-74
2022/12/08 11:37:34;;;;;;;12.73;6.88;;;;;;;3.49;100.00;100637.41;4999685;28;20065;-75
2022/12/08 11:40:14;;;;;;;5.50;3.25;;;;;;;4.00;100.00;100632.59;5004525;28;20014;-74
2022/12/08 11:42:54;;;;;;;7.25;4.22;;;;;;;3.84;100.00;100637.97;5010812;28;20065;-74
2022/12/08 11:45:26;;;;;;;6.70;3.42;;;;;;;3.97;100.00;100633.28;5010015;28;20032;-74
2022/12/08 11:48:04;;;;;;;7.57;3.90;;;;;;;3.81;100.00;100630.31;5008475;28;20034;-74
2022/12/08 11:50:40;;;;;;;11.50;4.97;;;;;;;3.78;100.00;100625.47;5018052;28;20503;-74
2022/12/08 11:53:15;;;;;;;7.63;3.08;;;;;;;3.84;100.00;100635.19;5004765;28;20026;-75
2022/12/08 11:55:46;;;;;;;6.55;3.03;;;;;;;3.77;100.00;100632.16;5003816;28;20068;-74
2022/12/08 11:58:22;;;;;;;8.60;3.10;;;;;;;3.69;100.00;100626.69;5005182;28;20029;-74
2022/12/08 12:00:48;;;;;;;5.05;2.67;;;;;;;3.72;100.00;100637.09;5002912;28;20300;-74
2022/12/08 12:03:25;;;;;;;11.00;3.80;;;;;;;3.57;100.00;100636.53;5011716;28;20035;-74
2022/12/08 12:06:12;;;;;;;12.43;5.05;;;;;;;3.61;100.00;100636.69;5025539;28;20061;-74
2022/12/08 12:09:10;;;;;;;12.68;5.90;;;;;;;3.58;100.00;100629.84;5013234;28;20688;-74
2022/12/08 12:15:00;;;;;;;10.77;5.13;;;;;;;3.52;100.00;100633.97;4997220;28;20412;-74
2022/12/08 12:17:51;;;;;;;11.48;5.78;;;;;;;3.49;100.00;100636.59;5008663;28;20091;-74
2022/12/08 12:20:24;;;;;;;12.05;6.80;;;;;;;3.28;100.00;100634.59;5020787;28;20029;-75
2022/12/08 12:22:57;;;;;;;11.77;5.57;;;;;;;3.27;100.00;100627.47;5006953;28;20366;-75
2022/12/08 12:25:25;;;;;;;9.30;6.60;;;;;;;3.35;100.00;100628.53;5004420;28;20037;-74
2022/12/08 12:27:56;;;;;;;12.43;6.65;;;;;;;3.39;100.00;100621.19;5003383;28;20045;-74
2022/12/08 12:30:27;;;;;;;11.82;6.68;;;;;;;3.35;100.00;100623.00;5003977;28;20060;-75
2022/12/08 12:33:00;;;;;;;11.55;5.88;;;;;;;3.51;100.00;100614.94;5004405;28;20150;-74
2022/12/08 12:35:35;;;;;;;10.75;6.30;;;;;;;3.32;100.00;100629.22;5008211;28;20022;-74
2022/12/08 12:38:59;;;;;;;10.77;5.60;;;;;;;3.38;100.00;100620.41;5002840;28;20033;-74
2022/12/08 12:41:01;;;;;;;9.43;5.20;;;;;;;3.15;100.00;100624.59;5005549;28;20393;-74
2022/12/08 12:43:31;;;;;;;10.52;5.60;;;;;;;3.16;100.00;100627.03;5009156;28;20038;-74
2022/12/08 12:46:21;;;;;;;10.77;6.97;;;;;;;3.42;100.00;100621.34;4998720;28;20048;-75
2022/12/08 12:48:47;;;;;;;7.30;4.57;;;;;;;3.31;100.00;100617.34;5004806;28;20408;-74
2022/12/08 12:51:42;;;;;;;11.57;4.90;;;;;;;3.47;100.00;100612.03;5009295;28;20054;-74
2022/12/08 12:54:25;;;;;;;7.15;4.45;;;;;;;3.30;100.00;100615.72;5007663;28;20269;-74
2022/12/08 12:56:54;;;;;;;5.85;4.72;;;;;;;3.35;100.00;100601.72;5004810;28;20489;-74
2022/12/08 12:59:41;;;;;;;5.15;3.90;;;;;;;3.44;100.00;100599.69;5004777;28;20035;-75
2022/12/08 13:02:32;;;;;;;11.93;4.82;;;;;;;3.50;100.00;100596.69;5006021;28;20025;-74
2022/12/08 13:05:29;;;;;;;6.55;3.78;;;;;;;3.32;100.00;100596.03;5002304;28;20017;-74
2022/12/08 13:07:57;;;;;;;13.05;4.75;;;;;;;3.41;100.00;100597.56;4985382;28;20108;-74
2022/12/08 13:10:22;;;;;;;9.68;3.70;;;;;;;3.41;100.00;100599.53;5006835;28;20137;-74
2022/12/08 13:13:20;;;;;;;3.15;1.80;;;;;;;5.29;100.00;100602.91;5005040;28;20405;-74
2022/12/08 13:15:45;;;;;;;11.57;4.90;;;;;;;4.12;100.00;100595.84;4974630;28;20054;-74
2022/12/08 13:18:27;;;;;;;11.00;3.75;;;;;;;4.09;100.00;100596.53;4987716;28;20041;-75
2022/12/08 13:21:08;;;;;;;5.47;1.98;;;;;;;11.21;100.00;100597.59;4998566;28;20412;-75
2022/12/08 13:23:36;;;;;;;5.15;3.35;;;;;;;11.98;88.10;100594.88;4995298;28;20065;-75
2022/12/08 13:26:13;;;;;;;5.00;2.97;;;;;;;7.48;86.49;100592.91;5001631;28;20513;-74
2022/12/08 13:29:00;;;;;;;4.18;3.08;;;;;;;5.18;100.00;100596.22;5004862;28;20101;-73
2022/12/08 13:31:40;;;;;;;6.78;2.90;;;;;;;4.75;100.00;100592.06;5007852;28;20049;-74
2022/12/08 13:34:12;;;;;;;5.18;2.90;;;;;;;4.31;100.00;100591.75;5012884;28;20063;-74
2022/12/08 13:36:59;;;;;;;8.45;4.50;;;;;;;4.18;100.00;100593.69;5018044;28;20042;-75
2022/12/08 13:39:39;;;;;;;5.78;2.60;;;;;;;4.03;100.00;100589.59;5015285;28;20538;-74
2022/12/08 13:42:11;;;;;;;7.70;2.50;;;;;;;4.18;100.00;100594.50;5008702;28;20488;-75
2022/12/08 13:45:02;;;;;;;2.80;2.40;;;;;;;4.21;100.00;100584.69;5007225;28;20484;-74
2022/12/08 13:47:34;;;;;;;7.60;2.90;;;;;;;4.20;100.00;100585.84;5012539;28;20030;-74
2022/12/08 13:50:18;;;;;;;4.15;2.22;;;;;;;4.05;100.00;100579.00;5004483;28;20136;-75
2022/12/08 13:52:55;;;;;;;5.70;2.40;;;;;;;3.82;100.00;100587.66;5000580;28;20052;-74
2022/12/08 13:55:27;;;;;;;7.95;3.28;;;;;;;4.00;100.00;100587.50;5002315;28;20037;-73
2022/12/08 13:57:56;;;;;;;8.15;2.75;;;;;;;4.01;100.00;100586.34;5003264;28;20447;-74
2022/12/08 14:00:23;;;;;;;3.88;2.55;;;;;;;3.90;100.00;100583.19;5003485;28;20061;-74
2022/12/08 14:02:51;;;;;;;4.40;2.22;;;;;;;3.79;100.00;100588.31;5003665;28;20034;-74
2022/12/08 14:05:19;;;;;;;5.88;2.25;;;;;;;3.80;100.00;100581.66;5003685;28;20492;-74
2022/12/08 14:07:47;;;;;;;6.47;2.38;;;;;;;3.61;100.00;100579.38;5006081;28;20040;-74
2022/12/08 14:10:25;;;;;;;3.47;2.35;;;;;;;3.44;100.00;100580.31;5005365;28;20030;-75
2022/12/08 14:13:00;;;;;;;3.17;2.33;;;;;;;3.72;100.00;100582.53;5000627;28;20058;-74
2022/12/08 14:15:26;;;;;;;8.57;3.20;;;;;;;3.66;100.00;100584.69;4998206;28;20038;-74
2022/12/08 14:17:54;;;;;;;5.13;3.13;;;;;;;3.69;100.00;100588.75;4995173;28;20029;-74
2022/12/08 14:20:29;;;;;;;4.82;2.58;;;;;;;3.91;100.00;100595.09;4987449;28;20516;-75
2022/12/08 14:22:56;;;;;;;5.13;2.63;;;;;;;3.72;100.00;100598.34;4992973;28;20113;-74
2022/12/08 14:25:22;;;;;;;5.25;3.45;;;;;;;3.73;100.00;100595.25;4993670;28;20389;-76
2022/12/08 14:27:48;;;;;;;4.15;3.00;;;;;;;3.80;100.00;100595.50;4997378;28;20025;-74
2022/12/08 14:30:23;;;;;;;5.55;2.90;;;;;;;3.85;100.00;100592.50;4995827;28;20026;-75
2022/12/08 14:36:14;;;;;;;7.50;3.30;;;;;;;3.92;100.00;100582.84;4997828;28;20047;-75
2022/12/08 14:38:39;;;;;;;7.38;3.97;;;;;;;3.80;100.00;100598.25;4996078;28;20386;-76
2022/12/08 14:41:55;;;;;;;7.55;3.95;;;;;;;3.93;100.00;100603.84;4993591;28;20049;-76
2022/12/08 14:44:23;;;;;;;7.82;3.55;;;;;;;3.94;100.00;100611.00;5002617;28;20040;-76
2022/12/08 14:47:09;;;;;;;8.90;4.10;;;;;;;3.93;100.00;100601.91;5000638;28;20033;-77
2022/12/08 14:49:38;;;;;;;7.30;4.30;;;;;;;3.95;100.00;100609.88;4995999;28;20125;-78
2022/12/08 14:52:10;;;;;;;10.43;4.28;;;;;;;3.93;100.00;100614.94;5012241;28;20496;-76
2022/12/08 14:54:39;;;;;;;7.63;4.32;;;;;;;3.92;100.00;100603.06;5004177;28;20116;-77
2022/12/08 14:57:05;;;;;;;10.88;4.65;;;;;;;3.91;100.00;100608.94;5014679;28;20041;-77
2022/12/08 14:59:34;;;;;;;6.57;4.20;;;;;;;3.86;100.00;100609.94;4998072;28;20536;-77
2022/12/08 15:02:29;;;;;;;10.07;5.18;;;;;;;3.83;100.00;100605.88;5000561;28;20033;-76
2022/12/08 15:05:09;;;;;;;8.20;3.70;;;;;;;4.11;100.00;100604.50;4997470;28;20050;-76
2022/12/08 15:07:49;;;;;;;10.35;3.85;;;;;;;3.94;100.00;100611.00;5005233;28;20092;-76
2022/12/08 15:10:14;;;;;;;6.35;3.78;;;;;;;3.89;100.00;100608.47;5006091;28;20042;-77
2022/12/08 15:12:55;;;;;;;9.82;4.65;;;;;;;3.84;100.00;100607.50;5009160;28;20049;-76
2022/12/08 15:15:21;;;;;;;8.68;3.95;;;;;;;3.80;100.00;100609.34;5012905;28;20065;-77
2022/12/08 15:17:46;;;;;;;11.32;4.30;;;;;;;3.79;100.00;100613.25;5013640;28;20127;-77
2022/12/08 15:20:24;;;;;;;7.45;4.20;;;;;;;3.77;100.00;100612.75;5016844;28;20106;-77
2022/12/08 15:22:50;;;;;;;8.63;4.82;;;;;;;3.78;100.00;100613.59;5003710;28;20485;-76
2022/12/08 15:25:15;;;;;;;12.65;3.90;;;;;;;3.74;100.00;100619.00;5005199;28;20139;-76
2022/12/08 15:27:40;;;;;;;10.40;6.30;;;;;;;3.73;100.00;100614.63;5005489;28;20499;-77
2022/12/08 15:30:12;;;;;;;7.22;4.45;;;;;;;3.70;100.00;100620.81;5009058;28;20030;-77
2022/12/08 15:32:38;;;;;;;10.38;4.60;;;;;;;3.70;100.00;100617.25;5008071;28;20422;-76
2022/12/08 15:35:04;;;;;;;8.50;5.90;;;;;;;3.69;100.00;100621.16;5013148;28;20041;-76
2022/12/08 15:37:29;;;;;;;6.70;4.47;;;;;;;3.65;100.00;100621.03;5001734;28;20456;-76
2022/12/08 15:39:54;;;;;;;9.60;4.78;;;;;;;3.66;100.00;100617.91;5005830;28;20108;-76
2022/12/08 15:42:20;;;;;;;10.10;5.20;;;;;;;3.64;100.00;100634.03;4997712;28;20381;-76
2022/12/08 15:44:45;;;;;;;11.63;5.95;;;;;;;4.66;100.00;100631.78;5006625;28;20079;-76
2022/12/08 15:47:20;;;;;;;9.82;5.75;;;;;;;3.90;100.00;100629.44;4999467;28;20030;-76
2022/12/08 15:49:48;;;;;;;9.48;5.22;;;;;;;3.97;100.00;100633.28;4995026;28;20093;-76
2022/12/08 15:52:16;;;;;;;8.93;5.50;;;;;;;3.79;100.00;100629.84;4999673;28;20034;-76
2022/12/08 15:54:42;;;;;;;12.20;5.93;;;;;;;3.76;100.00;100630.53;4999133;28;20037;-75
2022/12/08 15:57:16;;;;;;;9.98;6.63;;;;;;;3.76;100.00;100633.31;4997021;28;20975;-76
2022/12/08 15:59:41;;;;;;;23.25;11.45;;;;;;;3.63;100.00;100626.91;4997851;28;20163;-75
2022/12/08 16:02:11;;;;;;;14.27;7.13;;;;;;;3.71;100.00;100614.16;4999813;28;20042;-76
2022/12/08 16:04:36;;;;;;;14.35;7.82;;;;;;;3.67;100.00;100618.75;5011612;28;20072;-76
2022/12/08 16:07:01;;;;;;;14.35;8.45;;;;;;;3.67;100.00;100611.22;4998051;28;20034;-76
2022/12/08 16:09:37;;;;;;;19.60;10.15;;;;;;;3.69;100.00;100610.06;4998005;28;20378;-76
2022/12/08 16:14:48;;;;;;;18.13;11.10;;;;;;;3.62;100.00;100614.19;5003591;28;20569;-76
2022/12/08 16:17:17;;;;;;;15.25;10.68;;;;;;;3.62;100.00;100621.69;4997615;28;20038;-76
2022/12/08 16:19:46;;;;;;;17.85;9.65;;;;;;;3.57;100.00;100624.66;4996726;28;20025;-75
2022/12/08 16:22:30;;;;;;;17.42;9.27;;;;;;;3.60;100.00;100629.50;5004701;28;20029;-75
2022/12/08 16:24:56;;;;;;;16.33;8.80;;;;;;;3.60;100.00;100629.50;5003157;28;20038;-75
2022/12/08 16:27:31;;;;;;;17.60;10.20;;;;;;;3.62;100.00;100639.09;4996020;28;20041;-75
2022/12/08 16:29:58;;;;;;;15.20;8.93;;;;;;;3.62;100.00;100633.56;5003307;28;20073;-75
2022/12/08 16:32:24;;;;;;;15.32;9.90;;;;;;;3.63;100.00;100628.84;4999573;28;20045;-75
2022/12/08 16:34:50;;;;;;;15.48;8.48;;;;;;;3.64;100.00;100630.47;5000339;28;20036;-75
2022/12/08 16:37:18;;;;;;;19.67;8.88;;;;;;;3.67;100.00;100638.13;4991792;28;20048;-76
2022/12/08 16:39:44;;;;;;;15.38;8.52;;;;;;;3.70;100.00;100634.66;4997991;28;20485;-74
2022/12/08 16:44:58;;;;;;;17.95;9.30;;;;;;;3.67;100.00;100632.56;4996084;28;20760;-75
2022/12/08 16:47:24;;;;;;;17.38;8.20;;;;;;;3.63;100.00;100626.91;4998169;28;20030;-75
2022/12/08 16:49:49;;;;;;;19.30;10.25;;;;;;;3.69;100.00;100634.97;4993372;28;20676;-75
2022/12/08 16:52:16;;;;;;;17.05;9.10;;;;;;;3.69;100.00;100633.03;5002830;28;20036;-74
2022/12/08 16:54:41;;;;;;;21.25;11.35;;;;;;;3.71;100.00;100625.22;5016064;28;20030;-74
2022/12/08 16:57:06;;;;;;;18.65;12.25;;;;;;;3.70;100.00;100628.31;5007129;28;20057;-74
2022/12/08 16:59:32;;;;;;;20.25;10.73;;;;;;;3.63;100.00;100628.84;5008010;28;20050;-74
2022/12/08 17:01:57;;;;;;;28.92;15.63;;;;;;;4.20;100.00;100625.44;4999614;28;20053;-74
2022/12/08 17:04:22;;;;;;;26.63;12.80;;;;;;;3.90;100.00;100623.91;5000822;28;20469;-74
2022/12/08 17:06:51;;;;;;;24.40;13.43;;;;;;;3.81;100.00;100627.56;5000644;28;20389;-74
2022/12/08 17:09:17;;;;;;;22.17;13.20;;;;;;;3.75;100.00;100626.13;4996937;28;20036;-74
2022/12/08 17:11:43;;;;;;;22.95;11.90;;;;;;;3.70;100.00;100623.59;4997804;28;20280;-74
2022/12/08 17:14:09;;;;;;;23.50;11.02;;;;;;;3.67;100.00;100636.16;4997014;28;20080;-74
2022/12/08 17:16:34;;;;;;;25.83;12.90;;;;;;;3.66;100.00;100637.28;5002810;28;20112;-74
2022/12/08 17:18:59;;;;;;;27.33;12.93;;;;;;;3.72;100.00;100642.63;4993559;28;20034;-74
2022/12/08 17:21:25;;;;;;;27.88;14.07;;;;;;;3.64;100.00;100636.00;4997256;28;20436;-74
2022/12/08 17:23:50;;;;;;;29.45;16.23;;;;;;;3.48;100.00;100644.09;5002339;28;20036;-74
2022/12/08 17:26:16;;;;;;;40.28;20.67;;;;;;;3.53;100.00;100640.31;5001305;28;20041;-74
2022/12/08 17:28:41;;;;;;;28.85;15.32;;;;;;;3.61;100.00;100645.00;4999872;28;20063;-74
2022/12/08 17:31:15;;;;;;;41.30;16.23;;;;;;;3.45;100.00;100639.22;5002563;28;20246;-74
2022/12/08 17:33:41;;;;;;;39.97;16.30;;;;;;;3.33;100.00;100647.44;5003305;28;20472;-74
2022/12/08 17:36:11;;;;;;;30.42;15.40;;;;;;;3.10;100.00;100641.38;4996844;28;20038;-75
2022/12/08 17:38:37;;;;;;;31.30;16.35;;;;;;;3.49;100.00;100644.91;5004865;28;20029;-74
2022/12/08 17:41:07;;;;;;;103.13;39.10;;;;;;;3.53;100.00;100634.78;5000059;28;20026;-74
2022/12/08 17:43:33;;;;;;;50.65;22.98;;;;;;;3.65;100.00;100632.91;4994680;28;20037;-75
2022/12/08 17:45:59;;;;;;;49.88;23.52;;;;;;;3.63;100.00;100637.16;5002310;28;20387;-74
2022/12/08 17:48:25;;;;;;;42.42;20.02;;;;;;;3.71;100.00;100641.81;4999880;28;20104;-74